Terminal Aerodrome Forecast
Issued by NWS

Home | Current Version | Previous Version | Text Only | Print | Product List | Glossary On
Versions: 1 2 3 4 5 6 7 8 9 10 11 12 13 14 15 16 17 18 19 20 21 22 23 24 25 26 27 28 29 30 31 32 33 34 35 36 37 38 39 40 41 42 43 44 45 46 47 48 49 50
187
FTUS45 KBOU 220524
TAFAPA
TAF
KAPA 220524Z 2206/2306 36008KT P6SM VCSH BKN050 OVC080
      TEMPO 2206/2208 -SHRA BKN035 BKN050
     FM221000 23008KT P6SM SCT070 BKN100
     FM221400 26007KT P6SM FEW100 SCT220
     FM222200 35013G22KT P6SM VCSH SCT060 BKN100
     FM230000 02018G34KT P6SM VCTS BKN035CB BKN050
      TEMPO 2300/2304 3SM -RA BR SCT020 OVC035
     FM230400 33010KT P6SM VCSH SCT040 BKN080=

USA.gov is the U.S. government's official web portal to all federal, state and local government web resources and services.